Time;durP1;ratioP1;P1;durP2;ratioP2;P2;SDS_P1;SDS_P2;PMS_P1;PMS_P2;Temp;Humidity;BMP_temperature;BMP_pressure;BME280_temperature;BME280_humidity;BME280_pressure;Samples;Min_cycle;Max_cycle;Signal;HPM_P1;HPM_P2
2021/07/26 00:02:12;;;;;;;;;;;;;;;17.69;100.00;98480.75;5075919;28;19935;-78
2021/07/26 00:04:39;;;;;;;;;;;;;;;17.65;100.00;98478.09;5091653;28;19932;-78
2021/07/26 00:07:06;;;;;;;;;;;;;;;17.60;100.00;98481.59;5076281;28;19929;-78
2021/07/26 00:09:34;;;;;;;;;;;;;;;17.39;100.00;98479.84;5075861;28;19943;-78
2021/07/26 00:12:01;;;;;;;;;;;;;;;17.52;100.00;98485.28;5076095;28;19924;-78
2021/07/26 00:14:29;;;;;;;;;;;;;;;17.27;100.00;98480.09;5074451;28;19925;-78
2021/07/26 00:16:56;;;;;;;;;;;;;;;17.32;100.00;98477.41;5075610;28;20260;-78
2021/07/26 00:19:26;;;;;;;;;;;;;;;17.44;100.00;98478.44;5041388;28;20100;-78
2021/07/26 00:21:53;;;;;;;;;;;;;;;17.48;100.00;98470.53;5074625;28;19925;-78
2021/07/26 00:24:20;;;;;;;;;;;;;;;17.22;100.00;98472.31;5074529;28;19924;-78
2021/07/26 00:26:47;;;;;;;;;;;;;;;16.92;100.00;98476.31;5075767;28;19954;-77
2021/07/26 00:29:14;;;;;;;;;;;;;;;17.00;100.00;98477.47;5074491;28;19924;-78
2021/07/26 00:31:41;;;;;;;;;;;;;;;16.85;100.00;98471.78;5090673;28;20382;-78
2021/07/26 00:34:14;;;;;;;;;;;;;;;16.44;100.00;98475.47;5075687;28;19932;-78
2021/07/26 00:36:42;;;;;;;;;;;;;;;16.77;100.00;98473.41;5074407;28;19924;-78
2021/07/26 00:39:10;;;;;;;;;;;;;;;16.88;100.00;98475.69;5075501;28;19958;-78
2021/07/26 00:41:38;;;;;;;;;;;;;;;16.74;100.00;98474.34;5075486;28;19932;-78
2021/07/26 00:44:05;;;;;;;;;;;;;;;16.66;100.00;98469.56;5075319;28;19982;-78
2021/07/26 00:46:33;;;;;;;;;;;;;;;16.90;100.00;98464.72;5057002;28;19924;-78
2021/07/26 00:49:03;;;;;;;;;;;;;;;17.06;100.00;98461.44;5090611;28;19924;-78
2021/07/26 00:51:30;;;;;;;;;;;;;;;17.15;100.00;98461.38;5057519;28;20314;-78
2021/07/26 00:53:58;;;;;;;;;;;;;;;17.15;100.00;98458.56;5075168;28;20404;-78
2021/07/26 00:56:27;;;;;;;;;;;;;;;17.13;100.00;98452.63;5073858;28;19970;-78
2021/07/26 00:58:54;;;;;;;;;;;;;;;17.12;100.00;98456.69;5075109;28;19924;-78
2021/07/26 01:01:22;;;;;;;;;;;;;;;17.10;100.00;98462.06;5057230;28;20569;-78
2021/07/26 01:03:49;;;;;;;;;;;;;;;17.04;100.00;98458.34;5074949;28;20376;-78
2021/07/26 01:06:17;;;;;;;;;;;;;;;16.81;100.00;98459.13;5073919;28;19924;-78
2021/07/26 01:08:45;;;;;;;;;;;;;;;16.35;100.00;98460.59;5073697;28;20314;-78
2021/07/26 01:11:13;;;;;;;;;;;;;;;16.62;100.00;98466.13;5074854;28;19924;-78
2021/07/26 01:13:39;;;;;;;;;;;;;;;16.41;100.00;98467.13;5074881;28;19940;-78
2021/07/26 01:16:07;;;;;;;;;;;;;;;16.68;100.00;98461.38;5074413;28;19948;-78
2021/07/26 01:18:35;;;;;;;;;;;;;;;16.76;100.00;98462.59;5074858;28;19931;-78
2021/07/26 01:21:06;;;;;;;;;;;;;;;16.70;100.00;98465.31;5074656;28;19951;-78
2021/07/26 01:23:43;;;;;;;;;;;;;;;16.77;100.00;98467.75;5073415;28;19929;-78
2021/07/26 01:26:12;;;;;;;;;;;;;;;16.85;100.00;98465.34;5074537;28;19991;-78
2021/07/26 01:28:45;;;;;;;;;;;;;;;16.41;100.00;98461.50;5073374;28;19970;-78
2021/07/26 01:31:13;;;;;;;;;;;;;;;16.22;100.00;98467.22;5074083;28;19978;-78
2021/07/26 01:33:40;;;;;;;;;;;;;;;15.96;100.00;98473.72;5074370;28;19994;-78
2021/07/26 01:36:08;;;;;;;;;;;;;;;16.38;100.00;98477.34;5074790;28;19932;-78
2021/07/26 01:38:35;;;;;;;;;;;;;;;16.25;100.00;98480.34;5073249;28;19979;-78
2021/07/26 01:41:07;;;;;;;;;;;;;;;16.66;100.00;98473.13;5074461;28;19924;-78
2021/07/26 01:43:39;;;;;;;;;;;;;;;16.89;100.00;98472.38;5072960;28;20339;-78
2021/07/26 01:46:11;;;;;;;;;;;;;;;17.04;100.00;98469.63;5074174;28;19924;-78
2021/07/26 01:48:38;;;;;;;;;;;;;;;17.02;100.00;98466.50;5073734;28;19935;-78
2021/07/26 01:51:09;;;;;;;;;;;;;;;17.10;100.00;98465.66;5074184;28;19924;-78
2021/07/26 01:53:36;;;;;;;;;;;;;;;17.14;100.00;98468.28;5074095;28;19974;-78
2021/07/26 01:56:03;;;;;;;;;;;;;;;17.24;100.00;98470.56;5074166;28;19972;-78
2021/07/26 01:58:30;;;;;;;;;;;;;;;17.38;100.00;98471.88;5072050;28;19924;-78
2021/07/26 02:00:57;;;;;;;;;;;;;;;17.43;100.00;98471.22;5073802;28;19928;-78
2021/07/26 02:03:24;;;;;;;;;;;;;;;17.43;100.00;98471.22;5074007;28;19931;-78
2021/07/26 02:05:51;;;;;;;;;;;;;;;16.94;100.00;98474.56;5073815;28;19928;-78
2021/07/26 02:08:18;;;;;;;;;;;;;;;17.32;100.00;98470.97;5089653;28;20080;-78
2021/07/26 02:10:45;;;;;;;;;;;;;;;17.44;100.00;98469.97;5073622;28;20009;-78
2021/07/26 02:13:12;;;;;;;;;;;;;;;17.58;100.00;98469.22;5072333;28;19925;-78
2021/07/26 02:15:40;;;;;;;;;;;;;;;17.63;100.00;98462.91;5073705;28;19936;-78
2021/07/26 02:18:07;;;;;;;;;;;;;;;17.36;100.00;98465.91;5072619;28;20389;-78
2021/07/26 02:20:34;;;;;;;;;;;;;;;17.49;100.00;98472.13;5062444;28;19978;-77
2021/07/26 02:23:01;;;;;;;;;;;;;;;17.51;100.00;98472.41;5067687;28;19933;-78
2021/07/26 02:25:28;;;;;;;;;;;;;;;17.64;100.00;98481.41;5064102;28;19932;-78
2021/07/26 02:27:55;;;;;;;;;;;;;;;17.66;100.00;98478.88;5059564;28;20015;-78
2021/07/26 02:30:22;;;;;;;;;;;;;;;17.67;100.00;98478.41;5055587;28;19929;-78
2021/07/26 02:32:49;;;;;;;;;;;;;;;17.29;100.00;98478.38;5072466;28;19925;-78
2021/07/26 02:35:16;;;;;;;;;;;;;;;17.63;100.00;98477.03;5073449;28;19947;-78
2021/07/26 02:37:43;;;;;;;;;;;;;;;17.81;100.00;98474.03;5073554;28;19924;-78
2021/07/26 02:40:11;;;;;;;;;;;;;;;17.92;100.00;98468.56;5073349;28;19924;-78
2021/07/26 02:42:38;;;;;;;;;;;;;;;17.66;100.00;98476.81;5073234;28;20372;-78
2021/07/26 02:45:05;;;;;;;;;;;;;;;16.90;100.00;98476.78;5073593;28;19970;-78
2021/07/26 02:47:32;;;;;;;;;;;;;;;16.61;100.00;98473.03;5073532;28;20281;-78
2021/07/26 02:50:00;;;;;;;;;;;;;;;17.08;100.00;98478.69;5073390;28;19924;-78
2021/07/26 02:52:27;;;;;;;;;;;;;;;17.49;100.00;98480.59;5073390;28;19924;-78
2021/07/26 02:54:53;;;;;;;;;;;;;;;17.74;100.00;98468.75;5073417;28;20259;-78
2021/07/26 02:57:21;;;;;;;;;;;;;;;17.90;100.00;98474.69;5072886;28;20336;-78
2021/07/26 02:59:48;;;;;;;;;;;;;;;17.97;100.00;98465.06;5071017;28;19935;-78
2021/07/26 03:02:15;;;;;;;;;;;;;;;18.10;100.00;98473.25;5062354;28;19949;-79
2021/07/26 03:04:42;;;;;;;;;;;;;;;18.20;100.00;98469.81;5067531;28;19975;-78
2021/07/26 03:07:09;;;;;;;;;;;;;;;17.80;100.00;98467.59;5065902;28;20364;-78
2021/07/26 03:09:37;;;;;;;;;;;;;;;17.73;100.00;98470.81;5060204;28;19998;-78
2021/07/26 03:12:04;;;;;;;;;;;;;;;17.66;100.00;98473.22;5056743;28;19929;-78
2021/07/26 03:14:31;;;;;;;;;;;;;;;17.88;100.00;98470.81;5070713;28;19947;-78
2021/07/26 03:17:02;;;;;;;;;;;;;;;18.11;100.00;98464.28;5058016;28;19951;-78
2021/07/26 03:19:29;;;;;;;;;;;;;;;18.13;100.00;98467.38;5075392;28;20279;-78
2021/07/26 03:22:23;;;;;;;;;;;;;;;18.21;100.00;98473.41;5073457;28;19924;-78
2021/07/26 03:24:50;;;;;;;;;;;;;;;18.32;100.00;98468.75;5065123;28;20453;-78
2021/07/26 03:27:17;;;;;;;;;;;;;;;18.28;100.00;98456.81;5062943;28;20265;-78
2021/07/26 03:29:44;;;;;;;;;;;;;;;18.03;100.00;98451.78;5076800;28;19924;-78
2021/07/26 03:32:11;;;;;;;;;;;;;;;17.67;100.00;98452.19;5076645;28;19932;-78
2021/07/26 03:34:38;;;;;;;;;;;;;;;17.89;100.00;98447.72;5076658;28;20374;-78
2021/07/26 03:37:05;;;;;;;;;;;;;;;17.71;100.00;98447.91;5076606;28;20351;-78
2021/07/26 03:39:32;;;;;;;;;;;;;;;17.52;100.00;98448.56;5076508;28;19928;-78
2021/07/26 03:41:59;;;;;;;;;;;;;;;17.33;100.00;98445.09;5075329;28;20278;-78
2021/07/26 03:44:27;;;;;;;;;;;;;;;17.72;100.00;98443.78;5076655;28;19924;-78
2021/07/26 03:46:57;;;;;;;;;;;;;;;17.96;100.00;98450.13;5076522;28;20387;-78
2021/07/26 03:49:24;;;;;;;;;;;;;;;18.09;100.00;98443.41;5076188;28;19924;-78
2021/07/26 03:51:51;;;;;;;;;;;;;;;17.92;100.00;98445.94;5076469;28;19929;-78
2021/07/26 03:54:18;;;;;;;;;;;;;;;18.10;100.00;98445.72;5076228;28;19994;-78
2021/07/26 03:56:45;;;;;;;;;;;;;;;18.02;100.00;98445.34;5076332;28;19924;-78
2021/07/26 03:59:12;;;;;;;;;;;;;;;17.46;100.00;98444.84;5075167;28;19924;-78
2021/07/26 04:01:39;;;;;;;;;;;;;;;18.04;100.00;98450.53;5074980;28;20017;-78
2021/07/26 04:04:06;;;;;;;;;;;;;;;18.25;100.00;98445.75;5076304;28;20015;-78
2021/07/26 04:06:33;;;;;;;;;;;;;;;18.35;100.00;98445.13;5074761;28;19932;-78
2021/07/26 04:09:02;;;;;;;;;;;;;;;18.47;100.00;98446.09;5074664;28;20278;-78
2021/07/26 04:11:36;;;;;;;;;;;;;;;17.89;100.00;98442.06;5076050;28;20367;-79
2021/07/26 04:14:05;;;;;;;;;;;;;;;17.75;100.00;98445.66;5076074;28;20390;-78
2021/07/26 04:16:32;;;;;;;;;;;;;;;18.19;100.00;98447.69;5074668;28;20030;-78
2021/07/26 04:19:02;;;;;;;;;;;;;;;17.88;100.00;98434.84;5076037;28;19932;-78
2021/07/26 04:21:29;;;;;;;;;;;;;;;18.16;100.00;98432.47;5075441;28;19929;-79
2021/07/26 04:23:57;;;;;;;;;;;;;;;18.35;100.00;98439.47;5057776;28;20361;-78
2021/07/26 04:26:24;;;;;;;;;;;;;;;18.41;100.00;98434.72;5075886;28;19924;-78
2021/07/26 04:29:12;;;;;;;;;;;;;;;17.80;100.00;98438.53;5063268;28;20022;-79
2021/07/26 04:31:39;;;;;;;;;;;;;;;18.15;100.00;98442.22;5075785;28;19928;-78
2021/07/26 04:34:06;;;;;;;;;;;;;;;18.12;100.00;98440.38;5075786;28;20288;-78
2021/07/26 04:36:34;;;;;;;;;;;;;;;18.35;100.00;98439.47;5075694;28;20405;-78
2021/07/26 04:39:01;;;;;;;;;;;;;;;18.49;100.00;98433.03;5073970;28;19952;-78
2021/07/26 04:41:28;;;;;;;;;;;;;;;18.29;100.00;98430.13;5074334;28;19932;-78
2021/07/26 04:43:56;;;;;;;;;;;;;;;18.44;100.00;98430.91;5075305;28;19998;-78
2021/07/26 04:46:23;;;;;;;;;;;;;;;18.50;100.00;98436.63;5074304;28;19924;-79
2021/07/26 04:48:49;;;;;;;;;;;;;;;18.56;100.00;98432.63;5073949;28;20002;-78
2021/07/26 04:51:16;;;;;;;;;;;;;;;18.17;100.00;98428.41;5075342;28;19924;-78
2021/07/26 04:53:44;;;;;;;;;;;;;;;17.50;100.00;98425.66;5073864;28;20334;-78
2021/07/26 04:56:11;;;;;;;;;;;;;;;17.72;100.00;98445.88;5040598;28;19935;-78
2021/07/26 04:58:57;;;;;;;;;;;;;;;18.08;100.00;98442.63;5075139;28;20389;-78
2021/07/26 05:01:24;;;;;;;;;;;;;;;18.36;100.00;98435.38;5073956;28;20011;-78
2021/07/26 05:03:51;;;;;;;;;;;;;;;18.44;100.00;98430.13;5073958;28;19947;-78
2021/07/26 05:06:18;;;;;;;;;;;;;;;18.41;100.00;98426.22;5056877;28;19960;-78
2021/07/26 05:08:46;;;;;;;;;;;;;;;18.42;100.00;98436.25;5074813;28;20315;-78
2021/07/26 05:11:12;;;;;;;;;;;;;;;18.18;100.00;98431.97;5074738;28;19925;-78
2021/07/26 05:13:40;;;;;;;;;;;;;;;18.41;100.00;98439.59;5074838;28;19925;-78
2021/07/26 05:16:07;;;;;;;;;;;;;;;18.39;100.00;98442.91;5073665;28;19925;-78
2021/07/26 05:20:02;;;;;;;;;;;;;;;18.45;100.00;98443.75;5135788;27;19920;-78
2021/07/26 05:22:29;;;;;;;;;;;;;;;18.42;100.00;98439.09;5130379;28;20018;-78
2021/07/26 05:24:56;;;;;;;;;;;;;;;18.44;100.00;98436.56;5130608;28;19923;-78
2021/07/26 05:27:29;;;;;;;;;;;;;;;18.58;100.00;98446.28;5130749;28;19924;-78
2021/07/26 05:29:57;;;;;;;;;;;;;;;18.50;100.00;98434.59;5131845;27;19955;-78
2021/07/26 05:32:24;;;;;;;;;;;;;;;18.42;100.00;98438.34;5129977;28;20344;-78
2021/07/26 05:34:51;;;;;;;;;;;;;;;18.91;100.00;98435.41;5131546;27;19972;-78
2021/07/26 05:37:18;;;;;;;;;;;;;;;19.18;100.00;98426.50;5131124;27;19931;-78
2021/07/26 05:39:45;;;;;;;;;;;;;;;19.27;100.00;98427.16;5131416;27;19930;-79
2021/07/26 05:42:12;;;;;;;;;;;;;;;18.71;100.00;98427.69;5131474;27;20321;-78
2021/07/26 05:44:43;;;;;;;;;;;;;;;18.86;100.00;98434.06;5127862;28;19924;-78
2021/07/26 05:47:10;;;;;;;;;;;;;;;18.84;100.00;98439.44;5125530;28;19969;-78
2021/07/26 05:49:37;;;;;;;;;;;;;;;19.13;100.00;98444.97;5130121;28;19923;-77
2021/07/26 05:52:04;;;;;;;;;;;;;;;19.09;100.00;98438.75;5130939;27;19928;-78
2021/07/26 05:54:31;;;;;;;;;;;;;;;19.35;100.00;98453.00;5124615;28;19923;-78
2021/07/26 05:57:02;;;;;;;;;;;;;;;19.30;100.00;98445.22;5130427;27;19928;-78
2021/07/26 05:59:30;;;;;;;;;;;;;;;19.58;100.00;98452.75;5092951;28;19924;-79
2021/07/26 06:01:57;;;;;;;;;;;;;;;19.65;100.00;98454.38;5127680;27;20327;-77
2021/07/26 06:04:24;;;;;;;;;;;;;;;19.78;100.00;98442.66;5129668;28;20536;-78
2021/07/26 06:06:53;;;;;;;;;;;;;;;19.51;100.00;98439.03;5128840;28;19923;-78
2021/07/26 06:09:23;;;;;;;;;;;;;;;19.40;100.00;98441.72;5130056;28;19924;-78
2021/07/26 06:11:52;;;;;;;;;;;;;;;19.11;100.00;98441.09;5130332;27;19924;-78
2021/07/26 06:14:20;;;;;;;;;;;;;;;19.49;100.00;98447.22;5130125;27;19928;-78
2021/07/26 06:16:48;;;;;;;;;;;;;;;19.42;100.00;98438.41;5128857;28;20399;-79
2021/07/26 06:19:15;;;;;;;;;;;;;;;19.40;100.00;98447.38;5128590;28;20014;-78
2021/07/26 06:21:44;;;;;;;;;;;;;;;19.47;100.00;98449.03;5130162;27;20287;-78
2021/07/26 06:24:11;;;;;;;;;;;;;;;19.91;100.00;98443.03;5112435;28;19966;-78
2021/07/26 06:26:39;;;;;;;;;;;;;;;20.07;100.00;98442.41;5130525;27;19969;-78
2021/07/26 06:29:06;;;;;;;;;;;;;;;20.32;100.00;98435.94;5128971;28;19923;-79
2021/07/26 06:31:33;;;;;;;;;;;;;;;20.41;100.00;98436.53;5116294;28;20371;-78
2021/07/26 06:34:00;;;;;;;;;;;;;;;20.48;100.00;98429.59;5087503;28;20275;-79
2021/07/26 06:36:28;;;;;;;;;;;;;;;20.63;100.00;98424.56;5116670;28;19931;-78
2021/07/26 06:38:55;;;;;;;;;;;;;;;20.79;100.00;98426.72;5116751;28;19989;-79
2021/07/26 06:41:22;;;;;;;;;;;;;;;20.66;100.00;98415.03;5115455;28;19923;-79
2021/07/26 06:43:50;;;;;;;;;;;;;;;20.31;100.00;98423.03;5116549;28;19924;-79
2021/07/26 06:46:17;;;;;;;;;;;;;;;20.61;100.00;98421.44;5116633;28;19924;-79
2021/07/26 06:48:44;;;;;;;;;;;;;;;20.35;100.00;98421.53;5116096;28;20305;-79
2021/07/26 06:51:11;;;;;;;;;;;;;;;20.49;100.00;98419.81;5115287;28;19930;-79
2021/07/26 06:53:39;;;;;;;;;;;;;;;20.54;100.00;98428.34;5116362;28;20363;-78
2021/07/26 06:56:07;;;;;;;;;;;;;;;20.54;100.00;98428.34;5116398;28;19930;-78
2021/07/26 06:58:35;;;;;;;;;;;;;;;20.64;100.00;98423.28;5114808;28;20324;-78
2021/07/26 07:01:03;;;;;;;;;;;;;;;20.84;100.00;98434.50;5113528;28;19950;-78
2021/07/26 07:03:30;;;;;;;;;;;;;;;21.31;100.00;98428.03;5101138;28;20275;-78
2021/07/26 07:06:04;;;;;;;;;;;;;;;21.79;100.00;98425.88;5115605;28;19924;-78
2021/07/26 07:08:31;;;;;;;;;;;;;;;20.93;100.00;98425.78;5116365;28;19996;-79
2021/07/26 07:11:05;;;;;;;;;;;;;;;21.27;100.00;98433.94;5103298;28;20375;-79
2021/07/26 07:13:37;;;;;;;;;;;;;;;21.25;100.00;98439.34;5112780;28;19930;-79
2021/07/26 07:16:08;;;;;;;;;;;;;;;21.50;100.00;98434.00;5104653;28;19985;-79
2021/07/26 07:18:35;;;;;;;;;;;;;;;22.23;100.00;98428.75;5112279;28;20311;-80
2021/07/26 07:21:03;;;;;;;;;;;;;;;22.29;100.00;98420.19;5107499;28;19924;-80
2021/07/26 07:23:30;;;;;;;;;;;;;;;22.30;100.00;98428.22;5112378;28;19930;-80
2021/07/26 07:25:57;;;;;;;;;;;;;;;23.11;100.00;98428.59;5114407;28;20033;-80
2021/07/26 07:28:24;;;;;;;;;;;;;;;23.16;100.00;98423.41;5114448;28;19931;-80
2021/07/26 07:30:51;;;;;;;;;;;;;;;23.81;100.00;98405.19;5113706;28;20346;-77
2021/07/26 07:33:18;;;;;;;;;;;;;;;24.60;100.00;98401.97;5102102;27;19924;-79
2021/07/26 07:35:45;;;;;;;;;;;;;;;26.51;100.00;98398.34;5095044;28;20276;-79
2021/07/26 07:38:12;;;;;;;;;;;;;;;26.92;100.00;98392.13;5094471;28;19947;-80
2021/07/26 07:40:39;;;;;;;;;;;;;;;28.12;100.00;98399.44;5112934;28;19935;-80
2021/07/26 07:43:06;;;;;;;;;;;;;;;29.27;100.00;98380.47;5106069;28;19928;-80
2021/07/26 07:45:34;;;;;;;;;;;;;;;29.21;100.00;98374.88;5085952;28;19932;-80
2021/07/26 07:48:01;;;;;;;;;;;;;;;28.94;100.00;98364.94;5113663;28;20375;-79
2021/07/26 07:50:28;;;;;;;;;;;;;;;29.20;100.00;98379.09;5114046;28;19927;-79
2021/07/26 07:52:57;;;;;;;;;;;;;;;28.64;100.00;98381.19;5115044;28;19935;-79
2021/07/26 07:55:24;;;;;;;;;;;;;;;28.56;100.00;98381.13;5115309;28;19927;-79
2021/07/26 07:57:52;;;;;;;;;;;;;;;28.01;100.00;98371.00;5113740;28;19924;-80
2021/07/26 08:00:20;;;;;;;;;;;;;;;28.80;100.00;98377.84;5113845;28;19927;-79
2021/07/26 08:02:47;;;;;;;;;;;;;;;29.16;100.00;98383.66;5113396;28;19959;-80
2021/07/26 08:05:16;;;;;;;;;;;;;;;28.88;100.00;98378.69;5105064;28;19924;-80
2021/07/26 08:07:44;;;;;;;;;;;;;;;28.16;100.00;98379.00;5112988;28;19924;-79
2021/07/26 08:10:12;;;;;;;;;;;;;;;27.05;100.00;98383.56;5106614;28;19937;-79
2021/07/26 08:12:40;;;;;;;;;;;;;;;26.83;100.00;98386.84;5108158;28;20014;-79
2021/07/26 08:15:07;;;;;;;;;;;;;;;26.91;100.00;98391.38;5097877;28;19924;-80
2021/07/26 08:17:37;;;;;;;;;;;;;;;26.48;100.00;98398.69;5098806;28;19974;-79
2021/07/26 08:20:05;;;;;;;;;;;;;;;26.21;100.00;98398.59;5097707;28;19928;-79
2021/07/26 08:22:32;;;;;;;;;;;;;;;25.91;100.00;98389.44;5105863;28;19963;-80
2021/07/26 08:24:59;;;;;;;;;;;;;;;25.79;100.00;98396.66;5109447;28;19931;-79
2021/07/26 08:27:27;;;;;;;;;;;;;;;25.90;100.00;98390.72;5111856;28;19931;-79
2021/07/26 08:29:54;;;;;;;;;;;;;;;25.58;100.00;98398.50;5112856;28;19949;-79
2021/07/26 08:32:22;;;;;;;;;;;;;;;24.98;100.00;98397.16;5114571;28;20365;-79
2021/07/26 08:34:49;;;;;;;;;;;;;;;24.55;100.00;98397.06;5112894;28;19970;-79
2021/07/26 08:37:26;;;;;;;;;;;;;;;24.66;100.00;98402.72;5113103;28;19932;-79
2021/07/26 08:39:54;;;;;;;;;;;;;;;24.46;100.00;98391.72;5102901;28;19977;-79
2021/07/26 08:42:21;;;;;;;;;;;;;;;24.09;100.00;98402.94;5080726;28;20402;-79
2021/07/26 08:44:48;;;;;;;;;;;;;;;24.71;100.00;98398.25;5110653;28;19931;-79
2021/07/26 08:47:17;;;;;;;;;;;;;;;25.49;100.00;98392.41;5110701;28;19935;-79
2021/07/26 08:49:45;;;;;;;;;;;;;;;26.60;100.00;98389.31;5094833;28;20028;-79
2021/07/26 08:52:16;;;;;;;;;;;;;;;25.91;100.00;98389.44;5096749;28;19924;-79
2021/07/26 08:54:44;;;;;;;;;;;;;;;25.12;100.00;98390.25;5095233;28;19946;-79
2021/07/26 08:57:11;;;;;;;;;;;;;;;25.22;100.00;98399.22;5113520;28;19930;-79
2021/07/26 08:59:38;;;;;;;;;;;;;;;24.23;100.00;98401.03;5112154;28;19923;-79
2021/07/26 09:02:06;;;;;;;;;;;;;;;22.96;100.00;98402.50;5112744;28;20401;-79
2021/07/26 09:04:33;;;;;;;;;;;;;;;22.40;100.00;98412.41;5114006;28;19946;-79
2021/07/26 09:07:04;;;;;;;;;;;;;;;22.28;100.00;98413.72;5113551;28;19946;-79
2021/07/26 09:09:44;;;;;;;;;;;;;;;22.17;100.00;98416.59;5112506;28;19924;-80
2021/07/26 09:12:31;;;;;;;;;;;;;;;22.51;100.00;98420.97;5113822;28;20363;-79
2021/07/26 09:14:59;;;;;;;;;;;;;;;22.83;100.00;98416.53;5091954;28;19935;-79
2021/07/26 09:17:55;;;;;;;;;;;;;;;23.23;100.00;98412.25;5114162;28;19935;-80
2021/07/26 09:20:27;;;;;;;;;;;;;;;23.34;100.00;98409.34;5085135;28;19924;-80
2021/07/26 09:22:56;;;;;;;;;;;;;;;23.14;100.00;98416.16;5106934;28;19931;-80
2021/07/26 09:25:24;;;;;;;;;;;;;;;23.09;100.00;98399.88;5080886;28;19931;-81
2021/07/26 09:28:08;;;;;;;;;;;;;;;22.46;100.00;98421.72;5090136;28;19931;-81
2021/07/26 09:30:35;;;;;;;;;;;;;;;22.39;100.00;98416.56;5091322;28;20012;-80
2021/07/26 09:33:03;;;;;;;;;;;;;;;22.03;100.00;98425.34;5108068;28;19924;-80
2021/07/26 09:35:30;;;;;;;;;;;;;;;21.79;100.00;98422.22;5102917;28;19962;-80
2021/07/26 09:37:58;;;;;;;;;;;;;;;22.23;100.00;98420.22;5103200;28;19996;-80
2021/07/26 09:40:28;;;;;;;;;;;;;;;22.73;100.00;98415.22;5101129;28;19947;-80
2021/07/26 09:42:54;;;;;;;;;;;;;;;23.24;100.00;98410.16;5093327;28;19924;-78
2021/07/26 09:45:22;;;;;;;;;;;;;;;23.98;100.00;98402.25;5113343;28;19947;-79
2021/07/26 09:48:10;;;;;;;;;;;;;;;23.79;100.00;98395.63;5108614;28;19930;-80
2021/07/26 09:50:38;;;;;;;;;;;;;;;23.35;100.00;98398.72;5107144;28;19928;-81
2021/07/26 09:53:07;;;;;;;;;;;;;;;23.94;100.00;98404.59;5102082;28;20266;-81
2021/07/26 09:55:35;;;;;;;;;;;;;;;24.35;100.00;98391.84;5102790;28;20383;-81
2021/07/26 09:58:05;;;;;;;;;;;;;;;24.54;100.00;98395.53;5108209;28;19924;-81
2021/07/26 10:00:33;;;;;;;;;;;;;;;24.57;100.00;98403.03;5094959;28;19930;-81
2021/07/26 10:03:01;;;;;;;;;;;;;;;24.94;100.00;98399.56;5098439;28;19924;-81
2021/07/26 10:05:29;;;;;;;;;;;;;;;25.12;100.00;98395.97;5112900;28;20321;-80
2021/07/26 10:07:56;;;;;;;;;;;;;;;24.88;100.00;98393.13;5114391;28;20358;-81
2021/07/26 10:10:24;;;;;;;;;;;;;;;25.04;100.00;98392.16;5110934;28;19924;-81
2021/07/26 10:12:51;;;;;;;;;;;;;;;24.06;100.00;98401.16;5108068;28;20343;-80
2021/07/26 10:15:19;;;;;;;;;;;;;;;23.18;100.00;98404.47;5102610;28;19923;-80
2021/07/26 10:17:47;;;;;;;;;;;;;;;23.11;100.00;98400.09;5113110;28;19981;-78
2021/07/26 10:20:22;;;;;;;;;;;;;;;23.37;100.00;98410.38;5116880;28;20243;-78
2021/07/26 10:22:51;;;;;;;;;;;;;;;22.69;100.00;98403.34;5114788;28;19924;-77
2021/07/26 10:25:23;;;;;;;;;;;;;;;22.97;100.00;98398.34;5112396;28;19928;-77
2021/07/26 10:28:15;;;;;;;;;;;;;;;23.09;100.00;98405.56;5116370;28;20018;-77
2021/07/26 10:30:42;;;;;;;;;;;;;;;23.00;100.00;98403.00;5113054;28;19988;-78
2021/07/26 10:33:09;;;;;;;;;;;;;;;23.39;100.00;98397.16;5115082;28;19935;-78
2021/07/26 10:35:39;;;;;;;;;;;;;;;23.02;100.00;98397.53;5115425;28;19923;-78
2021/07/26 10:38:08;;;;;;;;;;;;;;;23.16;100.00;98392.06;5115486;28;19928;-78
2021/07/26 10:40:42;;;;;;;;;;;;;;;23.19;100.00;98388.94;5116287;28;20375;-78
2021/07/26 10:43:12;;;;;;;;;;;;;;;23.73;100.00;98374.91;5115385;28;19931;-78
2021/07/26 10:45:42;;;;;;;;;;;;;;;23.56;100.00;98374.25;5115169;28;20287;-78
2021/07/26 10:48:21;;;;;;;;;;;;;;;23.33;100.00;98369.97;5090643;28;19938;-78
2021/07/26 10:50:48;;;;;;;;;;;;;;;23.44;100.00;98384.16;5115117;28;19924;-78
2021/07/26 10:53:34;;;;;;;;;;;;;;;23.71;100.00;98383.22;5115243;28;19924;-78
2021/07/26 10:56:15;;;;;;;;;;;;;;;23.65;100.00;98374.72;5114771;28;20351;-78
2021/07/26 10:58:58;;;;;;;;;;;;;;;23.32;100.00;98379.84;5116429;28;19935;-78
2021/07/26 11:01:26;;;;;;;;;;;;;;;23.07;100.00;98376.81;5110568;28;20401;-78
2021/07/26 11:03:56;;;;;;;;;;;;;;;23.48;100.00;98387.53;5116395;28;19934;-78
2021/07/26 11:06:41;;;;;;;;;;;;;;;23.33;100.00;98381.38;5097633;28;20386;-78
2021/07/26 11:09:21;;;;;;;;;;;;;;;23.50;100.00;98376.38;5110150;28;19932;-79
2021/07/26 11:11:48;;;;;;;;;;;;;;;23.51;100.00;98369.38;5114865;28;19935;-78
2021/07/26 11:14:15;;;;;;;;;;;;;;;23.74;100.00;98371.53;5116038;28;20011;-78
2021/07/26 11:16:49;;;;;;;;;;;;;;;24.13;100.00;98362.69;5115893;28;19959;-78
2021/07/26 11:19:29;;;;;;;;;;;;;;;24.38;100.00;98353.66;5114555;28;19924;-78
2021/07/26 11:21:56;;;;;;;;;;;;;;;23.93;100.00;98351.69;5114723;28;20350;-78
2021/07/26 11:24:39;;;;;;;;;;;;;;;24.13;100.00;98351.28;5115636;28;20059;-79
2021/07/26 11:27:10;;;;;;;;;;;;;;;23.56;100.00;98354.28;5114484;28;20382;-78
2021/07/26 11:29:38;;;;;;;;;;;;;;;23.01;100.00;98347.56;5114644;28;20378;-78
2021/07/26 11:32:05;;;;;;;;;;;;;;;23.11;100.00;98354.50;5115707;28;19932;-78
2021/07/26 11:34:35;;;;;;;;;;;;;;;23.38;100.00;98360.63;5097832;28;19931;-78
2021/07/26 11:37:09;;;;;;;;;;;;;;;23.42;100.00;98358.25;5096525;28;19930;-78
2021/07/26 11:40:04;;;;;;;;;;;;;;;23.37;100.00;98353.38;5115161;28;19923;-78
2021/07/26 11:42:32;;;;;;;;;;;;;;;23.56;100.00;98340.03;5113544;28;20409;-78
2021/07/26 11:45:03;;;;;;;;;;;;;;;23.62;100.00;98347.25;5114189;28;19959;-78
2021/07/26 11:47:38;;;;;;;;;;;;;;;23.75;100.00;98346.66;5115413;28;19924;-78
2021/07/26 11:50:09;;;;;;;;;;;;;;;24.18;100.00;98330.47;5115463;28;20366;-78
2021/07/26 11:52:36;;;;;;;;;;;;;;;24.38;100.00;98327.19;5115091;28;20275;-78
2021/07/26 11:55:10;;;;;;;;;;;;;;;24.65;100.00;98329.00;5114029;28;19923;-78
2021/07/26 11:57:52;;;;;;;;;;;;;;;24.74;100.00;98334.34;5106830;28;19946;-79
2021/07/26 12:00:23;;;;;;;;;;;;;;;24.40;100.00;98336.00;5115148;28;19928;-78
2021/07/26 12:02:50;;;;;;;;;;;;;;;24.72;100.00;98334.09;5115186;28;19935;-79
2021/07/26 12:05:18;;;;;;;;;;;;;;;24.61;100.00;98329.25;5113591;28;19935;-78
2021/07/26 12:07:45;;;;;;;;;;;;;;;24.70;100.00;98336.72;5114528;28;19930;-79
2021/07/26 12:10:14;;;;;;;;;;;;;;;24.57;100.00;98328.00;5114877;28;19923;-79
2021/07/26 12:12:45;;;;;;;;;;;;;;;24.53;100.00;98324.69;5114849;28;19923;-79
2021/07/26 12:15:22;;;;;;;;;;;;;;;24.32;100.00;98335.81;5096742;28;20336;-79
2021/07/26 12:18:07;;;;;;;;;;;;;;;24.52;100.00;98326.00;5113519;28;19924;-78
2021/07/26 12:20:36;;;;;;;;;;;;;;;24.42;100.00;98322.72;5101099;28;20363;-78
2021/07/26 12:23:16;;;;;;;;;;;;;;;24.13;100.00;98328.44;5108113;28;19970;-78
2021/07/26 12:25:45;;;;;;;;;;;;;;;24.73;100.00;98329.94;5110483;28;19934;-78
2021/07/26 12:28:13;;;;;;;;;;;;;;;24.28;100.00;98326.75;5109325;28;20657;-78
2021/07/26 12:30:43;;;;;;;;;;;;;;;24.31;100.00;98322.81;5113063;28;20404;-77
2021/07/26 12:33:12;;;;;;;;;;;;;;;24.19;100.00;98320.59;5114536;28;19923;-78
2021/07/26 12:35:40;;;;;;;;;;;;;;;24.82;100.00;98321.00;5111818;28;19924;-78
2021/07/26 12:38:07;;;;;;;;;;;;;;;24.94;100.00;98305.25;5103026;28;19931;-78
2021/07/26 12:40:35;;;;;;;;;;;;;;;25.00;100.00;98308.81;5110978;28;19923;-78
2021/07/26 12:43:04;;;;;;;;;;;;;;;24.88;100.00;98310.28;5108852;28;19958;-78
2021/07/26 12:45:31;;;;;;;;;;;;;;;24.66;100.00;98313.38;5110201;28;19993;-78
2021/07/26 12:48:19;;;;;;;;;;;;;;;24.75;100.00;98305.22;5109790;28;19927;-77